Time;durP1;ratioP1;P1;durP2;ratioP2;P2;SDS_P1;SDS_P2;PMS_P1;PMS_P2;Temp;Humidity;BMP_temperature;BMP_pressure;BME280_temperature;BME280_humidity;BME280_pressure;Samples;Min_cycle;Max_cycle;Signal;HPM_P1;HPM_P2
2024/01/16 00:03:25;;;;;;;3.50;1.93;;;;;;;;;;10363505;28;20271;-68
2024/01/16 00:08:25;;;;;;;5.87;2.33;;;;;;;;;;10366038;28;20867;-67
2024/01/16 00:13:25;;;;;;;2.63;2.00;;;;;;;;;;10366790;28;20225;-67
2024/01/16 00:18:26;;;;;;;5.13;2.13;;;;;;;;;;10368955;28;20213;-67
2024/01/16 00:23:26;;;;;;;5.90;2.70;;;;;;;;;;10373838;28;20284;-68
2024/01/16 00:28:26;;;;;;;7.53;3.20;;;;;;;;;;10373191;28;20213;-68
2024/01/16 00:33:27;;;;;;;11.20;2.63;;;;;;;;;;10373084;28;20220;-68
2024/01/16 00:38:27;;;;;;;7.00;3.30;;;;;;;;;;10369420;28;20565;-68
2024/01/16 00:43:27;;;;;;;8.20;3.20;;;;;;;;;;10372407;28;20193;-68
2024/01/16 00:48:27;;;;;;;6.00;2.53;;;;;;;;;;10372761;28;20769;-68
2024/01/16 00:53:28;;;;;;;5.33;2.47;;;;;;;;;;10372540;28;20226;-68
2024/01/16 00:58:28;;;;;;;8.00;2.50;;;;;;;;;;10368517;28;20213;-67
2024/01/16 01:03:28;;;;;;;12.00;2.90;;;;;;;;;;10372114;28;20447;-68
2024/01/16 01:08:28;;;;;;;5.20;2.47;;;;;;;;;;10371911;28;20249;-67
2024/01/16 01:13:28;;;;;;;3.27;2.70;;;;;;;;;;10371948;28;20221;-67
2024/01/16 01:18:29;;;;;;;5.20;2.40;;;;;;;;;;10367357;28;20866;-67
2024/01/16 01:23:29;;;;;;;5.50;2.90;;;;;;;;;;10371652;28;20201;-67
2024/01/16 01:28:29;;;;;;;7.10;3.20;;;;;;;;;;10370271;28;20216;-67
2024/01/16 01:33:29;;;;;;;7.17;3.83;;;;;;;;;;10371222;28;20672;-67
2024/01/16 01:38:29;;;;;;;3.33;2.53;;;;;;;;;;10366853;28;20466;-67
2024/01/16 01:43:29;;;;;;;10.93;2.93;;;;;;;;;;10370436;28;20544;-67
2024/01/16 01:48:31;;;;;;;5.53;3.13;;;;;;;;;;10370255;28;20327;-67
2024/01/16 01:53:33;;;;;;;9.43;3.53;;;;;;;;;;10366449;28;20253;-67
2024/01/16 01:58:33;;;;;;;7.27;3.37;;;;;;;;;;10369932;28;20237;-67
2024/01/16 02:03:37;;;;;;;7.77;2.93;;;;;;;;;;10370143;28;20213;-67
2024/01/16 02:08:40;;;;;;;5.03;2.67;;;;;;;;;;10369343;28;20248;-67
2024/01/16 02:13:41;;;;;;;2.97;2.17;;;;;;;;;;10362741;28;20231;-68
2024/01/16 02:18:41;;;;;;;5.03;2.80;;;;;;;;;;10369103;28;20597;-66
2024/01/16 02:23:42;;;;;;;6.57;2.97;;;;;;;;;;10369120;28;20204;-68
2024/01/16 02:28:42;;;;;;;4.87;2.13;;;;;;;;;;10368540;28;20209;-67
2024/01/16 02:33:43;;;;;;;13.47;2.93;;;;;;;;;;10365132;28;20259;-68
2024/01/16 02:38:43;;;;;;;5.07;2.23;;;;;;;;;;10368454;28;20198;-67
2024/01/16 02:43:43;;;;;;;4.93;2.00;;;;;;;;;;10367795;28;20595;-67
2024/01/16 02:48:43;;;;;;;5.33;2.33;;;;;;;;;;10367794;28;20231;-67
2024/01/16 02:53:43;;;;;;;3.90;2.80;;;;;;;;;;10363949;28;20221;-67
2024/01/16 02:58:44;;;;;;;6.43;2.50;;;;;;;;;;10367177;28;20468;-67
2024/01/16 03:03:44;;;;;;;5.93;2.67;;;;;;;;;;10368011;28;20185;-68
2024/01/16 03:08:44;;;;;;;7.27;3.23;;;;;;;;;;10366883;28;20264;-67
2024/01/16 03:13:45;;;;;;;6.10;3.20;;;;;;;;;;10364995;28;20297;-68
2024/01/16 03:18:45;;;;;;;5.93;2.30;;;;;;;;;;10367955;28;20259;-67
2024/01/16 03:23:46;;;;;;;8.80;3.07;;;;;;;;;;10367563;28;20212;-67
2024/01/16 03:28:46;;;;;;;7.97;2.83;;;;;;;;;;10363740;28;20699;-68
2024/01/16 03:33:46;;;;;;;5.67;2.67;;;;;;;;;;10367369;28;20213;-67
2024/01/16 03:38:46;;;;;;;6.80;2.57;;;;;;;;;;10367057;28;20204;-67
2024/01/16 03:43:46;;;;;;;6.10;2.37;;;;;;;;;;10367472;28;20200;-67
2024/01/16 03:48:46;;;;;;;6.23;2.20;;;;;;;;;;10363267;28;20236;-67
2024/01/16 03:53:46;;;;;;;5.57;1.87;;;;;;;;;;10374615;28;20216;-68
2024/01/16 03:58:47;;;;;;;6.03;2.13;;;;;;;;;;10374491;28;20208;-67
2024/01/16 04:03:47;;;;;;;6.93;2.33;;;;;;;;;;10374736;28;20685;-68
2024/01/16 04:08:48;;;;;;;4.37;2.07;;;;;;;;;;10370469;28;20930;-68
2024/01/16 04:13:48;;;;;;;2.20;2.00;;;;;;;;;;10373943;28;20589;-68
2024/01/16 04:18:48;;;;;;;5.37;2.03;;;;;;;;;;10373585;28;20680;-68
2024/01/16 04:23:48;;;;;;;1.93;1.73;;;;;;;;;;10373749;28;20190;-68
2024/01/16 04:28:48;;;;;;;4.17;1.93;;;;;;;;;;10370356;28;20583;-68
2024/01/16 04:33:48;;;;;;;4.63;2.03;;;;;;;;;;10373218;28;20221;-68
2024/01/16 04:38:49;;;;;;;2.97;1.87;;;;;;;;;;10373269;28;20288;-68
2024/01/16 04:43:50;;;;;;;4.63;2.20;;;;;;;;;;10371920;28;20455;-68
2024/01/16 04:48:50;;;;;;;4.63;1.90;;;;;;;;;;10370339;28;20303;-68
2024/01/16 04:53:50;;;;;;;3.93;2.30;;;;;;;;;;10372654;28;20221;-68
2024/01/16 04:58:52;;;;;;;5.80;2.70;;;;;;;;;;10372163;28;20216;-68
2024/01/16 05:03:52;;;;;;;4.90;2.40;;;;;;;;;;10367856;28;20276;-69
2024/01/16 05:08:52;;;;;;;5.33;2.00;;;;;;;;;;10371897;28;20323;-69
2024/01/16 05:13:57;;;;;;;4.40;2.10;;;;;;;;;;10372062;28;20220;-69
2024/01/16 05:18:57;;;;;;;6.60;1.73;;;;;;;;;;10371611;28;20213;-69
2024/01/16 05:23:57;;;;;;;3.73;1.80;;;;;;;;;;10367712;28;20185;-68
2024/01/16 05:28:58;;;;;;;3.77;1.70;;;;;;;;;;10371339;28;20194;-67
2024/01/16 05:33:58;;;;;;;5.83;1.90;;;;;;;;;;10371148;28;20209;-68
2024/01/16 05:38:58;;;;;;;5.63;1.93;;;;;;;;;;10370650;28;20482;-68
2024/01/16 05:43:58;;;;;;;4.13;2.40;;;;;;;;;;10367235;28;20645;-67
2024/01/16 05:48:58;;;;;;;4.23;2.30;;;;;;;;;;10370630;28;20217;-67
2024/01/16 05:53:59;;;;;;;7.30;2.43;;;;;;;;;;10369793;28;20535;-69
2024/01/16 05:58:59;;;;;;;8.30;2.43;;;;;;;;;;10370037;28;20464;-68
2024/01/16 06:03:59;;;;;;;7.30;2.17;;;;;;;;;;10366635;28;20236;-69
2024/01/16 06:09:04;;;;;;;4.07;2.30;;;;;;;;;;10369101;28;20245;-68
2024/01/16 06:14:04;;;;;;;4.50;2.17;;;;;;;;;;10369621;28;20213;-67
2024/01/16 06:19:05;;;;;;;2.27;2.00;;;;;;;;;;10366070;28;20236;-67
2024/01/16 06:24:05;;;;;;;4.33;2.30;;;;;;;;;;10369280;28;20196;-67
2024/01/16 06:29:05;;;;;;;2.23;2.07;;;;;;;;;;10369104;28;20563;-68
2024/01/16 06:34:05;;;;;;;10.07;2.97;;;;;;;;;;10370621;28;20687;-68
2024/01/16 06:39:06;;;;;;;3.20;2.63;;;;;;;;;;10365107;28;20668;-66
2024/01/16 06:44:06;;;;;;;10.13;3.17;;;;;;;;;;10368815;28;20276;-67
2024/01/16 06:49:07;;;;;;;10.27;3.93;;;;;;;;;;10368812;28;20233;-67
2024/01/16 06:54:07;;;;;;;6.90;2.80;;;;;;;;;;10368414;28;20227;-68
2024/01/16 06:59:07;;;;;;;4.57;3.13;;;;;;;;;;10365032;28;20581;-67
2024/01/16 07:04:07;;;;;;;7.10;2.90;;;;;;;;;;10368089;28;20251;-67
2024/01/16 07:09:10;;;;;;;8.27;2.87;;;;;;;;;;10367883;28;20484;-67
2024/01/16 07:14:10;;;;;;;6.97;2.80;;;;;;;;;;10367871;28;20220;-66
2024/01/16 07:19:11;;;;;;;6.10;2.57;;;;;;;;;;10364333;28;20214;-67
2024/01/16 07:24:13;;;;;;;5.13;2.57;;;;;;;;;;10364948;28;20189;-67
2024/01/16 07:29:13;;;;;;;7.70;2.33;;;;;;;;;;10375859;28;20220;-67
2024/01/16 07:34:19;;;;;;;11.20;2.27;;;;;;;;;;10375883;28;20255;-68
2024/01/16 07:39:20;;;;;;;7.33;2.57;;;;;;;;;;10372317;28;20213;-68
2024/01/16 07:44:21;;;;;;;6.50;2.63;;;;;;;;;;10375446;28;20189;-68
2024/01/16 07:49:21;;;;;;;3.57;2.33;;;;;;;;;;10375351;28;20221;-68
2024/01/16 07:54:21;;;;;;;6.50;2.70;;;;;;;;;;10371475;28;20614;-68
2024/01/16 07:59:21;;;;;;;7.77;2.87;;;;;;;;;;10373777;28;20213;-68
2024/01/16 08:04:21;;;;;;;12.27;2.93;;;;;;;;;;10374625;28;20193;-67
2024/01/16 08:09:22;;;;;;;8.00;2.80;;;;;;;;;;10374296;28;20305;-67
2024/01/16 08:14:22;;;;;;;4.20;2.43;;;;;;;;;;10370836;28;20237;-68
2024/01/16 08:19:22;;;;;;;5.70;2.70;;;;;;;;;;10373832;28;20656;-67
2024/01/16 08:24:22;;;;;;;10.57;2.70;;;;;;;;;;10374194;28;20298;-66
2024/01/16 08:29:23;;;;;;;7.53;2.50;;;;;;;;;;10373746;28;20705;-68
2024/01/16 08:34:23;;;;;;;7.20;2.97;;;;;;;;;;10370303;28;20486;-67
2024/01/16 08:39:24;;;;;;;10.87;3.03;;;;;;;;;;10373052;28;20206;-67
2024/01/16 08:44:24;;;;;;;7.77;3.00;;;;;;;;;;10373213;28;20292;-66
2024/01/16 08:49:24;;;;;;;7.40;2.20;;;;;;;;;;10372919;28;20229;-67
2024/01/16 08:54:25;;;;;;;16.07;2.50;;;;;;;;;;10369158;28;20600;-67
2024/01/16 08:59:26;;;;;;;6.87;2.70;;;;;;;;;;10372859;28;20329;-67
2024/01/16 09:04:26;;;;;;;4.90;2.60;;;;;;;;;;10372409;28;20339;-67
2024/01/16 09:09:26;;;;;;;11.43;3.77;;;;;;;;;;10371956;28;20256;-68
2024/01/16 09:14:26;;;;;;;6.20;2.70;;;;;;;;;;10368411;28;20243;-68
2024/01/16 09:19:26;;;;;;;8.90;3.70;;;;;;;;;;10371760;28;20217;-68
2024/01/16 09:24:26;;;;;;;10.53;3.07;;;;;;;;;;10371746;28;20201;-68
2024/01/16 09:29:27;;;;;;;7.20;3.60;;;;;;;;;;10367903;28;20217;-66
2024/01/16 09:34:28;;;;;;;10.17;2.63;;;;;;;;;;10371157;28;20228;-67
2024/01/16 09:39:31;;;;;;;6.40;2.93;;;;;;;;;;10370902;28;20205;-67
2024/01/16 09:44:31;;;;;;;3.10;2.43;;;;;;;;;;10371143;28;20201;-67
2024/01/16 09:49:31;;;;;;;8.57;3.00;;;;;;;;;;10366501;28;20209;-68
2024/01/16 09:54:31;;;;;;;6.40;3.30;;;;;;;;;;10370509;28;20205;-68
2024/01/16 09:59:32;;;;;;;7.57;2.77;;;;;;;;;;10370185;28;20216;-67
2024/01/16 10:04:34;;;;;;;4.53;2.83;;;;;;;;;;10369937;28;20184;-67
2024/01/16 10:09:34;;;;;;;10.40;3.70;;;;;;;;;;10366215;28;20700;-69
2024/01/16 10:14:34;;;;;;;8.70;2.90;;;;;;;;;;10369743;28;20186;-68
2024/01/16 10:19:34;;;;;;;6.67;2.13;;;;;;;;;;10371650;28;20316;-69
2024/01/16 10:24:35;;;;;;;4.47;2.43;;;;;;;;;;10369338;28;20308;-68
2024/01/16 10:29:36;;;;;;;7.33;2.43;;;;;;;;;;10365069;28;20275;-66
2024/01/16 10:34:36;;;;;;;5.83;2.90;;;;;;;;;;10369221;28;20201;-67
2024/01/16 10:39:37;;;;;;;7.53;2.97;;;;;;;;;;10368775;28;20205;-67
2024/01/16 10:44:52;;;;;;;5.07;2.70;;;;;;;;;;10368825;28;20186;-67
2024/01/16 10:49:52;;;;;;;4.60;2.97;;;;;;;;;;10366632;28;20271;-68
2024/01/16 10:54:56;;;;;;;4.23;2.67;;;;;;;;;;10367992;28;20236;-67
2024/01/16 11:00:00;;;;;;;6.80;2.60;;;;;;;;;;10367247;28;20205;-67
2024/01/16 11:05:01;;;;;;;7.43;2.97;;;;;;;;;;10364089;28;20205;-67
2024/01/16 11:10:02;;;;;;;6.90;2.50;;;;;;;;;;10367611;28;20201;-66
2024/01/16 11:15:07;;;;;;;7.83;3.23;;;;;;;;;;10367632;28;20194;-67
2024/01/16 11:20:10;;;;;;;6.57;2.90;;;;;;;;;;10366770;28;20246;-67
2024/01/16 11:25:11;;;;;;;11.80;3.20;;;;;;;;;;10363991;28;20209;-66
2024/01/16 11:30:11;;;;;;;7.70;2.37;;;;;;;;;;10363947;28;20217;-67
2024/01/16 11:35:11;;;;;;;10.40;3.40;;;;;;;;;;10367138;28;20282;-66
2024/01/16 11:40:20;;;;;;;6.00;2.80;;;;;;;;;;10367297;28;20189;-66
2024/01/16 11:45:26;;;;;;;6.00;2.37;;;;;;;;;;10363662;28;20460;-67
2024/01/16 11:50:27;;;;;;;5.63;2.60;;;;;;;;;;10367118;28;20266;-67
2024/01/16 11:55:32;;;;;;;5.70;2.67;;;;;;;;;;10367041;28;20214;-67
2024/01/16 12:00:35;;;;;;;4.90;2.57;;;;;;;;;;10367027;28;20617;-67
2024/01/16 12:05:35;;;;;;;9.83;6.43;;;;;;;;;;10362549;28;20312;-65
2024/01/16 12:10:46;;;;;;;5.17;2.50;;;;;;;;;;10367334;28;20629;-65
2024/01/16 12:15:46;;;;;;;11.47;2.77;;;;;;;;;;10371317;28;20828;-67
2024/01/16 12:20:46;;;;;;;7.93;3.00;;;;;;;;;;10370352;28;20185;-67
2024/01/16 12:25:46;;;;;;;9.27;4.67;;;;;;;;;;10373844;28;20209;-66
2024/01/16 12:30:50;;;;;;;14.63;8.10;;;;;;;;;;10373245;28;20695;-65
2024/01/16 12:36:00;;;;;;;7.27;3.43;;;;;;;;;;10373443;28;20715;-66
2024/01/16 12:41:01;;;;;;;7.67;2.70;;;;;;;;;;10369838;28;20206;-66
2024/01/16 12:46:02;;;;;;;5.23;2.93;;;;;;;;;;10372770;28;20735;-67
2024/01/16 12:51:02;;;;;;;6.90;2.73;;;;;;;;;;10372073;28;20217;-66
2024/01/16 12:56:03;;;;;;;4.87;2.80;;;;;;;;;;10372335;28;20224;-67
2024/01/16 13:01:21;;;;;;;5.10;3.30;;;;;;;;;;10368848;28;20448;-67
2024/01/16 13:06:22;;;;;;;28.73;15.47;;;;;;;;;;10368624;28;20229;-66
2024/01/16 13:11:22;;;;;;;5.90;3.10;;;;;;;;;;10371532;28;20217;-67
2024/01/16 13:16:23;;;;;;;5.87;3.47;;;;;;;;;;10371568;28;20731;-66
2024/01/16 13:21:25;;;;;;;6.20;3.23;;;;;;;;;;10368315;28;20569;-66
2024/01/16 13:26:25;;;;;;;9.03;3.07;;;;;;;;;;10370565;28;20472;-66
2024/01/16 13:31:25;;;;;;;4.10;2.67;;;;;;;;;;10371032;28;20606;-66
2024/01/16 13:36:26;;;;;;;8.23;3.53;;;;;;;;;;10367370;28;20237;-66
2024/01/16 13:41:27;;;;;;;4.43;2.93;;;;;;;;;;10371047;28;20197;-66
2024/01/16 13:46:27;;;;;;;9.00;2.93;;;;;;;;;;10370783;28;20213;-67
2024/01/16 13:51:28;;;;;;;13.30;3.83;;;;;;;;;;10369304;28;20636;-65
2024/01/16 13:56:28;;;;;;;5.67;2.67;;;;;;;;;;10370694;28;21151;-66
2024/01/16 14:01:28;;;;;;;5.73;2.20;;;;;;;;;;10369957;28;20284;-66
2024/01/16 14:06:30;;;;;;;7.53;3.23;;;;;;;;;;10369823;28;20240;-66
2024/01/16 14:11:31;;;;;;;4.27;2.77;;;;;;;;;;10366062;28;20725;-66
2024/01/16 14:16:31;;;;;;;5.40;3.03;;;;;;;;;;10369472;28;20217;-66
2024/01/16 14:21:32;;;;;;;8.77;3.08;;;;;;;;;;10369745;28;20201;-66
2024/01/16 14:26:32;;;;;;;12.03;4.97;;;;;;;;;;10368781;28;20235;-66
2024/01/16 14:31:32;;;;;;;11.20;4.03;;;;;;;;;;10365819;28;20209;-67
2024/01/16 14:36:32;;;;;;;7.03;3.80;;;;;;;;;;10368455;28;20206;-66
2024/01/16 14:41:33;;;;;;;6.67;3.63;;;;;;;;;;10369020;28;20232;-66
2024/01/16 14:46:33;;;;;;;6.57;4.10;;;;;;;;;;10368489;28;20209;-67
2024/01/16 14:51:33;;;;;;;6.53;3.10;;;;;;;;;;10364968;28;20279;-67
2024/01/16 14:56:33;;;;;;;5.17;3.37;;;;;;;;;;10368316;28;20217;-67
2024/01/16 15:01:33;;;;;;;8.70;4.03;;;;;;;;;;10367892;28;20185;-67
2024/01/16 15:06:33;;;;;;;12.37;7.60;;;;;;;;;;10367913;28;20236;-67
2024/01/16 15:11:34;;;;;;;10.23;3.60;;;;;;;;;;10364192;28;20221;-67
2024/01/16 15:16:34;;;;;;;47.60;16.30;;;;;;;;;;10367744;28;20213;-67
2024/01/16 15:21:34;;;;;;;44.03;19.27;;;;;;;;;;10367899;28;20239;-67
2024/01/16 15:26:35;;;;;;;349.53;110.00;;;;;;;;;;10364063;28;20209;-67
2024/01/16 15:31:35;;;;;;;205.77;73.77;;;;;;;;;;10367486;28;20219;-67
2024/01/16 15:36:35;;;;;;;114.10;49.30;;;;;;;;;;10367124;28;20734;-66
2024/01/16 15:41:35;;;;;;;48.90;22.63;;;;;;;;;;10367446;28;20247;-67
2024/01/16 15:46:54;;;;;;;21.93;9.93;;;;;;;;;;10365547;28;20259;-67
2024/01/16 15:51:54;;;;;;;78.87;30.00;;;;;;;;;;10373034;28;20221;-68
2024/01/16 15:56:55;;;;;;;55.67;23.60;;;;;;;;;;10375331;28;20821;-67
2024/01/16 16:01:55;;;;;;;20.30;10.33;;;;;;;;;;10374895;28;20189;-67
2024/01/16 16:06:55;;;;;;;7.70;5.17;;;;;;;;;;10370936;28;20259;-67
2024/01/16 16:11:56;;;;;;;6.27;4.20;;;;;;;;;;10374159;28;20827;-68
2024/01/16 16:17:01;;;;;;;15.13;8.60;;;;;;;;;;10373869;28;20213;-67
2024/01/16 16:22:03;;;;;;;9.73;6.63;;;;;;;;;;10374169;28;20197;-68
2024/01/16 16:27:20;;;;;;;11.37;4.90;;;;;;;;;;10370179;28;20208;-68
2024/01/16 16:32:21;;;;;;;27.73;11.77;;;;;;;;;;10371793;28;20209;-68
2024/01/16 16:37:22;;;;;;;10.80;5.40;;;;;;;;;;10373548;28;20675;-67
2024/01/16 16:42:22;;;;;;;11.83;6.20;;;;;;;;;;10371326;28;20639;-67
2024/01/16 16:47:23;;;;;;;18.63;11.23;;;;;;;;;;10372920;28;20299;-67
2024/01/16 16:52:23;;;;;;;16.60;7.30;;;;;;;;;;10372974;28;20225;-67
2024/01/16 16:57:23;;;;;;;18.53;7.90;;;;;;;;;;10372395;28;20209;-67
2024/01/16 17:02:24;;;;;;;15.30;5.87;;;;;;;;;;10369023;28;20660;-66
2024/01/16 17:07:24;;;;;;;12.33;6.40;;;;;;;;;;10371848;28;20609;-67
2024/01/16 17:12:24;;;;;;;9.30;4.40;;;;;;;;;;10372071;28;20593;-66
2024/01/16 17:17:26;;;;;;;7.60;3.87;;;;;;;;;;10371738;28;20217;-67
2024/01/16 17:22:26;;;;;;;10.17;4.20;;;;;;;;;;10368029;28;20193;-67
2024/01/16 17:27:28;;;;;;;10.20;4.40;;;;;;;;;;10371481;28;20227;-67
2024/01/16 17:32:28;;;;;;;16.83;7.33;;;;;;;;;;10371113;28;20309;-67
2024/01/16 17:37:28;;;;;;;29.87;18.00;;;;;;;;;;10371139;28;20256;-68
2024/01/16 17:42:28;;;;;;;13.80;5.63;;;;;;;;;;10367733;28;20224;-68
2024/01/16 17:47:28;;;;;;;8.10;4.53;;;;;;;;;;10370722;28;20723;-67
2024/01/16 17:52:32;;;;;;;11.60;5.13;;;;;;;;;;10370702;28;20778;-68
2024/01/16 17:57:33;;;;;;;6.30;3.53;;;;;;;;;;10370267;28;20229;-67
2024/01/16 18:02:33;;;;;;;4.90;3.60;;;;;;;;;;10367065;28;20217;-68
2024/01/16 18:07:33;;;;;;;7.23;4.50;;;;;;;;;;10369652;28;20240;-68
2024/01/16 18:12:33;;;;;;;14.60;5.20;;;;;;;;;;10369483;28;20225;-67
2024/01/16 18:17:33;;;;;;;5.17;3.97;;;;;;;;;;10366196;28;20240;-67
2024/01/16 18:22:34;;;;;;;12.13;5.57;;;;;;;;;;10369100;28;20244;-67
2024/01/16 18:27:37;;;;;;;7.13;4.20;;;;;;;;;;10369204;28;20201;-68
2024/01/16 18:32:37;;;;;;;11.03;4.97;;;;;;;;;;10368268;28;20248;-67
2024/01/16 18:37:39;;;;;;;3.07;2.57;;;;;;;;;;10365157;28;20216;-67
2024/01/16 18:42:39;;;;;;;8.33;4.30;;;;;;;;;;10368319;28;20280;-67
2024/01/16 18:47:42;;;;;;;9.17;5.40;;;;;;;;;;10368070;28;20296;-68
2024/01/16 18:52:43;;;;;;;8.37;5.17;;;;;;;;;;10368202;28;20592;-67
2024/01/16 18:57:43;;;;;;;10.83;5.77;;;;;;;;;;10362697;28;20205;-67
2024/01/16 19:02:45;;;;;;;8.63;4.23;;;;;;;;;;10368029;28;20190;-68
2024/01/16 19:07:45;;;;;;;4.10;3.67;;;;;;;;;;10367303;28;20232;-68
2024/01/16 19:12:46;;;;;;;16.67;8.03;;;;;;;;;;10367466;28;20591;-68
2024/01/16 19:17:46;;;;;;;11.70;5.27;;;;;;;;;;10363942;28;20213;-66
2024/01/16 19:22:47;;;;;;;8.47;4.83;;;;;;;;;;10366593;28;20193;-68
2024/01/16 19:27:47;;;;;;;6.33;4.10;;;;;;;;;;10367386;28;20296;-68
2024/01/16 19:32:48;;;;;;;8.77;4.43;;;;;;;;;;10366527;28;20665;-68
2024/01/16 19:37:48;;;;;;;4.60;3.23;;;;;;;;;;10365017;28;20965;-68
2024/01/16 19:42:50;;;;;;;7.07;4.13;;;;;;;;;;10367528;28;20809;-68
2024/01/16 19:47:50;;;;;;;6.03;3.43;;;;;;;;;;10367281;28;20763;-67
2024/01/16 19:52:55;;;;;;;3.73;2.93;;;;;;;;;;10363875;28;20213;-68
2024/01/16 19:57:56;;;;;;;4.07;3.57;;;;;;;;;;10366978;28;20637;-68
2024/01/16 20:02:57;;;;;;;5.07;3.03;;;;;;;;;;10367241;28;20201;-67
2024/01/16 20:07:57;;;;;;;7.27;2.70;;;;;;;;;;10366697;28;20626;-68
2024/01/16 20:13:02;;;;;;;6.13;3.17;;;;;;;;;;10363462;28;20217;-67
2024/01/16 20:18:03;;;;;;;15.70;8.00;;;;;;;;;;10366829;28;20335;-68
2024/01/16 20:23:03;;;;;;;13.90;5.30;;;;;;;;;;10366470;28;20351;-67
2024/01/16 20:28:05;;;;;;;21.47;8.43;;;;;;;;;;10366822;28;20212;-68
2024/01/16 20:33:05;;;;;;;24.57;9.33;;;;;;;;;;10366231;28;20209;-67
2024/01/16 20:38:06;;;;;;;9.07;4.33;;;;;;;;;;10373836;28;20208;-67
2024/01/16 20:43:06;;;;;;;7.70;3.73;;;;;;;;;;10373761;28;20203;-67
2024/01/16 20:48:07;;;;;;;6.10;2.87;;;;;;;;;;10373106;28;20303;-67
2024/01/16 20:53:07;;;;;;;4.70;2.58;;;;;;;;;;10369571;28;20217;-66
2024/01/16 20:58:08;;;;;;;5.03;2.90;;;;;;;;;;10372781;28;20236;-66
2024/01/16 21:03:11;;;;;;;7.80;3.63;;;;;;;;;;10372756;28;20606;-66
2024/01/16 21:08:12;;;;;;;9.97;3.30;;;;;;;;;;10368483;28;20225;-66
2024/01/16 21:13:14;;;;;;;6.97;3.40;;;;;;;;;;10372280;28;20308;-67
2024/01/16 21:18:15;;;;;;;6.47;3.73;;;;;;;;;;10371978;28;20228;-68
2024/01/16 21:23:16;;;;;;;9.00;3.33;;;;;;;;;;10371897;28;20196;-68
2024/01/16 21:28:16;;;;;;;6.83;3.67;;;;;;;;;;10368237;28;20226;-67
2024/01/16 21:33:17;;;;;;;21.57;8.60;;;;;;;;;;10371446;28;20238;-67
2024/01/16 21:38:17;;;;;;;11.93;4.20;;;;;;;;;;10371495;28;20213;-67
2024/01/16 21:43:17;;;;;;;5.93;3.80;;;;;;;;;;10370325;28;20197;-67
2024/01/16 21:48:18;;;;;;;10.27;4.47;;;;;;;;;;10367247;28;20212;-67
2024/01/16 21:53:18;;;;;;;7.50;3.60;;;;;;;;;;10370622;28;20494;-67
2024/01/16 21:58:18;;;;;;;7.83;4.40;;;;;;;;;;10370361;28;20239;-67
2024/01/16 22:03:19;;;;;;;12.80;5.80;;;;;;;;;;10370755;28;20205;-67
2024/01/16 22:08:19;;;;;;;4.97;3.67;;;;;;;;;;10366561;28;20242;-68
2024/01/16 22:13:19;;;;;;;9.70;3.70;;;;;;;;;;10369993;28;20255;-68
2024/01/16 22:18:20;;;;;;;4.23;2.90;;;;;;;;;;10369583;28;20570;-68
2024/01/16 22:23:20;;;;;;;2.70;2.43;;;;;;;;;;10369919;28;20194;-67
2024/01/16 22:28:20;;;;;;;4.67;3.03;;;;;;;;;;10365687;28;20205;-67
2024/01/16 22:33:20;;;;;;;7.80;2.60;;;;;;;;;;10369103;28;20717;-67
2024/01/16 22:38:20;;;;;;;4.40;2.33;;;;;;;;;;10368949;28;20234;-67
2024/01/16 22:43:20;;;;;;;7.17;3.33;;;;;;;;;;10365459;28;20620;-67
2024/01/16 22:48:21;;;;;;;3.40;2.90;;;;;;;;;;10369102;28;20209;-67
2024/01/16 22:53:22;;;;;;;2.07;1.97;;;;;;;;;;10368590;28;20217;-67
2024/01/16 22:58:22;;;;;;;5.37;2.70;;;;;;;;;;10368485;28;20463;-68
2024/01/16 23:03:23;;;;;;;6.93;3.73;;;;;;;;;;10364712;28;20215;-67
2024/01/16 23:08:23;;;;;;;4.27;2.80;;;;;;;;;;10367813;28;20275;-66
2024/01/16 23:13:24;;;;;;;8.23;3.30;;;;;;;;;;10367980;28;20312;-67
2024/01/16 23:18:27;;;;;;;3.20;2.50;;;;;;;;;;10367509;28;20236;-67
2024/01/16 23:23:27;;;;;;;6.57;3.03;;;;;;;;;;10364564;28;20199;-68
2024/01/16 23:28:27;;;;;;;7.73;4.37;;;;;;;;;;10367418;28;20297;-68
2024/01/16 23:33:28;;;;;;;10.37;4.67;;;;;;;;;;10367900;28;20224;-67
2024/01/16 23:38:28;;;;;;;13.70;4.70;;;;;;;;;;10367351;28;20222;-67
2024/01/16 23:43:33;;;;;;;6.53;4.47;;;;;;;;;;10363767;28;20238;-67
2024/01/16 23:48:33;;;;;;;8.20;4.20;;;;;;;;;;10367362;28;20212;-68
2024/01/16 23:53:34;;;;;;;4.63;3.50;;;;;;;;;;10367095;28;20590;-68
2024/01/16 23:58:34;;;;;;;8.90;4.63;;;;;;;;;;10367117;28;20201;-68
